Pagrindinis puslapis
METAR-TAF:

METAR-TAF

Oro uostai :

Svolvær, Norvegija

platuma: 68-15N, ilguma: 014-40E, Aukštis: 0 m

Dabartinis oras

Ataskaita buvo paskelbta 4 valandos ir 21 minutes, ne 20:50 UTC
Vėjas 20 kt iš Šiaurės Vakarų su gūsio iki 35 kt
Temperatūra -2°C
Drėgmė 86%
Slėgis 988 hPa
Matomumas: 2000 m
sniegas

METAR: ENSH 192050Z 31020G35KT 2000 SHSN VV008 M02/M04 Q0988 RMK WIND 150FT 31022G45KT

Laikas: 02:11 (01:11 UTC)

Prognozė

Ataskaita buvo paskelbta 8 valandos ir 11 minutes, ne 17:00 UTC
Prognozė galioja nuo 19 metu 18 UTC su 19 metu 22 UTC
Vėjas 15 kt iš Šiaurės Vakarų
Matomumas 10 km arba daugiau
Mažai debesys ne aukštis 1500 ft
Su prošvaistėmis ne aukštis 3000 ft
Laikinai
nuo 19 metu 18 UTC su 19 metu 22 UTC
Vėjas 20 kt iš Šiaurės Vakarų su gūsio iki 35 kt
Matomumas: 0500 m
ne aukštis 400 ft
sniegas

TAF: ENSH 191700Z 1918/1922 32015KT 9999 FEW015 BKN030 TEMPO 1918/1922 31020G35KT 0500 +SHSN VV004

Orai ataskaitas ir orų prognozės (METAR, TAF).

turimą stotys yra geltonos ir raudonos taškus žemėlapyje.

Perkelti pele per norėdami pamatyti stoties vardą.

Tada spustelėkite, norėdami matyti oro stebėjimo ir prognozės.

Norėdami pakeisti žemėlapį: spustelėkite ant žalios mygtukų su juodo kryžiaus žemyn,; žalią mygtuką su brūkšneliu, jei norite nutolinti; arba žalių rodyklių gretimoms žemėlapius.


METAR-TAF: